sensor_id;sensor_type;location;lat;lon;timestamp;pressure;altitude;pressure_sealevel;temperature;humidity
56876;BME280;42622;49.972;8.452;2022-12-11T00:01:19;100175.81;;;-4.03;100.00
56876;BME280;42622;49.972;8.452;2022-12-11T00:03:47;100169.75;;;-4.00;100.00
56876;BME280;42622;49.972;8.452;2022-12-11T00:06:17;100177.44;;;-3.96;100.00
56876;BME280;42622;49.972;8.452;2022-12-11T00:08:46;100175.66;;;-3.91;100.00
56876;BME280;42622;49.972;8.452;2022-12-11T00:11:15;100178.16;;;-3.85;100.00
56876;BME280;42622;49.972;8.452;2022-12-11T00:13:42;100169.50;;;-3.82;100.00
56876;BME280;42622;49.972;8.452;2022-12-11T00:16:09;100175.47;;;-3.78;100.00
56876;BME280;42622;49.972;8.452;2022-12-11T00:18:36;100172.06;;;-3.77;100.00
56876;BME280;42622;49.972;8.452;2022-12-11T00:21:05;100170.28;;;-3.75;100.00
56876;BME280;42622;49.972;8.452;2022-12-11T00:23:36;100170.31;;;-3.78;100.00
56876;BME280;42622;49.972;8.452;2022-12-11T00:26:13;100174.59;;;-3.74;100.00
56876;BME280;42622;49.972;8.452;2022-12-11T00:28:41;100173.69;;;-3.72;100.00
56876;BME280;42622;49.972;8.452;2022-12-11T00:31:12;100173.63;;;-3.67;100.00
56876;BME280;42622;49.972;8.452;2022-12-11T00:33:43;100174.41;;;-3.62;100.00
56876;BME280;42622;49.972;8.452;2022-12-11T00:36:21;100176.91;;;-3.56;100.00
56876;BME280;42622;49.972;8.452;2022-12-11T00:38:49;100166.53;;;-3.53;100.00
56876;BME280;42622;49.972;8.452;2022-12-11T00:41:16;100173.38;;;-3.49;100.00
56876;BME280;42622;49.972;8.452;2022-12-11T00:43:43;100185.38;;;-3.45;100.00
56876;BME280;42622;49.972;8.452;2022-12-11T00:46:09;100192.19;;;-3.41;100.00
56876;BME280;42622;49.972;8.452;2022-12-11T00:48:36;100185.31;;;-3.42;100.00
56876;BME280;42622;49.972;8.452;2022-12-11T00:51:03;100188.78;;;-3.43;100.00
56876;BME280;42622;49.972;8.452;2022-12-11T00:53:29;100186.22;;;-3.43;100.00
56876;BME280;42622;49.972;8.452;2022-12-11T00:55:55;100179.28;;;-3.41;100.00
56876;BME280;42622;49.972;8.452;2022-12-11T00:58:21;100180.13;;;-3.39;100.00
56876;BME280;42622;49.972;8.452;2022-12-11T01:00:47;100186.97;;;-3.38;100.00
56876;BME280;42622;49.972;8.452;2022-12-11T01:03:16;100184.34;;;-3.36;100.00
56876;BME280;42622;49.972;8.452;2022-12-11T01:05:53;100180.06;;;-3.35;100.00
56876;BME280;42622;49.972;8.452;2022-12-11T01:08:19;100180.06;;;-3.35;100.00
56876;BME280;42622;49.972;8.452;2022-12-11T01:10:45;100180.06;;;-3.35;100.00
56876;BME280;42622;49.972;8.452;2022-12-11T01:13:11;100180.00;;;-3.32;100.00
56876;BME280;42622;49.972;8.452;2022-12-11T01:15:41;100186.84;;;-3.28;100.00
56876;BME280;42622;49.972;8.452;2022-12-11T01:18:12;100187.66;;;-3.26;100.00
56876;BME280;42622;49.972;8.452;2022-12-11T01:20:41;100183.34;;;-3.24;100.00
56876;BME280;42622;49.972;8.452;2022-12-11T01:23:11;100182.50;;;-3.26;100.00
56876;BME280;42622;49.972;8.452;2022-12-11T01:25:39;100182.53;;;-3.28;100.00
56876;BME280;42622;49.972;8.452;2022-12-11T01:28:06;100181.69;;;-3.28;100.00
56876;BME280;42622;49.972;8.452;2022-12-11T01:30:34;100173.13;;;-3.33;100.00
56876;BME280;42622;49.972;8.452;2022-12-11T01:33:01;100182.69;;;-3.39;100.00
56876;BME280;42622;49.972;8.452;2022-12-11T01:35:27;100182.69;;;-3.39;100.00
56876;BME280;42622;49.972;8.452;2022-12-11T01:37:54;100178.38;;;-3.38;100.00
56876;BME280;42622;49.972;8.452;2022-12-11T01:40:21;100185.25;;;-3.35;100.00
56876;BME280;42622;49.972;8.452;2022-12-11T01:42:47;100174.88;;;-3.34;100.00
56876;BME280;42622;49.972;8.452;2022-12-11T01:48:10;100182.50;;;-3.26;100.00
56876;BME280;42622;49.972;8.452;2022-12-11T01:50:57;100174.66;;;-3.20;100.00
56876;BME280;42622;49.972;8.452;2022-12-11T01:53:33;100166.81;;;-3.16;100.00
56876;BME280;42622;49.972;8.452;2022-12-11T01:56:03;100178.81;;;-3.12;100.00
56876;BME280;42622;49.972;8.452;2022-12-11T01:58:40;100184.78;;;-3.08;100.00
56876;BME280;42622;49.972;8.452;2022-12-11T02:01:17;100179.56;;;-3.05;100.00
56876;BME280;42622;49.972;8.452;2022-12-11T02:03:54;100175.25;;;-3.04;100.00
56876;BME280;42622;49.972;8.452;2022-12-11T02:06:42;100181.22;;;-3.01;100.00
56876;BME280;42622;49.972;8.452;2022-12-11T02:09:27;100172.56;;;-2.97;100.00
56876;BME280;42622;49.972;8.452;2022-12-11T02:12:35;100169.97;;;-2.97;100.00
56876;BME280;42622;49.972;8.452;2022-12-11T02:21:31;100181.94;;;-2.91;100.00
56876;BME280;42622;49.972;8.452;2022-12-11T02:27:35;100191.38;;;-2.89;100.00
56876;BME280;42622;49.972;8.452;2022-12-11T02:30:13;100193.06;;;-2.86;100.00
56876;BME280;42622;49.972;8.452;2022-12-11T02:32:55;100201.56;;;-2.79;100.00
56876;BME280;42622;49.972;8.452;2022-12-11T02:35:31;100191.16;;;-2.76;100.00
56876;BME280;42622;49.972;8.452;2022-12-11T02:38:14;100192.88;;;-2.75;100.00
56876;BME280;42622;49.972;8.452;2022-12-11T02:40:49;100196.28;;;-2.73;100.00
56876;BME280;42622;49.972;8.452;2022-12-11T02:43:20;100205.78;;;-2.74;100.00
56876;BME280;42622;49.972;8.452;2022-12-11T02:45:51;100199.84;;;-2.80;100.00
56876;BME280;42622;49.972;8.452;2022-12-11T02:48:22;100195.56;;;-2.81;100.00
56876;BME280;42622;49.972;8.452;2022-12-11T02:50:56;100203.34;;;-2.81;100.00
56876;BME280;42622;49.972;8.452;2022-12-11T02:53:28;100193.06;;;-2.86;100.00
56876;BME280;42622;49.972;8.452;2022-12-11T02:56:23;100186.16;;;-2.85;100.00
56876;BME280;42622;49.972;8.452;2022-12-11T02:59:12;100190.44;;;-2.84;100.00
56876;BME280;42622;49.972;8.452;2022-12-11T03:01:41;100190.34;;;-2.78;100.00
56876;BME280;42622;49.972;8.452;2022-12-11T03:04:08;100195.53;;;-2.78;100.00
56876;BME280;42622;49.972;8.452;2022-12-11T03:06:47;100191.16;;;-2.76;100.00
56876;BME280;42622;49.972;8.452;2022-12-11T03:09:17;100191.16;;;-2.76;100.00
56876;BME280;42622;49.972;8.452;2022-12-11T03:11:43;100191.19;;;-2.78;100.00
56876;BME280;42622;49.972;8.452;2022-12-11T03:14:09;100185.13;;;-2.77;100.00
56876;BME280;42622;49.972;8.452;2022-12-11T03:16:46;100186.00;;;-2.76;100.00
56876;BME280;42622;49.972;8.452;2022-12-11T03:19:49;100187.72;;;-2.75;100.00
56876;BME280;42622;49.972;8.452;2022-12-11T03:22:38;100189.41;;;-2.74;100.00
56876;BME280;42622;49.972;8.452;2022-12-11T03:25:38;100187.72;;;-2.75;100.00
56876;BME280;42622;49.972;8.452;2022-12-11T03:29:05;100191.22;;;-2.79;100.00
56876;BME280;42622;49.972;8.452;2022-12-11T03:31:24;100186.03;;;-2.79;100.00
56876;BME280;42622;49.972;8.452;2022-12-11T03:33:58;100186.03;;;-2.79;100.00
56876;BME280;42622;49.972;8.452;2022-12-11T03:36:37;100180.00;;;-2.80;100.00
56876;BME280;42622;49.972;8.452;2022-12-11T03:39:15;100182.59;;;-2.78;100.00
56876;BME280;42622;49.972;8.452;2022-12-11T03:41:50;100185.13;;;-2.77;100.00
56876;BME280;42622;49.972;8.452;2022-12-11T03:44:22;100185.94;;;-2.73;100.00
56876;BME280;42622;49.972;8.452;2022-12-11T03:46:54;100186.69;;;-2.67;100.00
56876;BME280;42622;49.972;8.452;2022-12-11T03:49:28;100187.53;;;-2.66;100.00
56876;BME280;42622;49.972;8.452;2022-12-11T03:52:04;100178.97;;;-2.68;100.00
56876;BME280;42622;49.972;8.452;2022-12-11T03:54:34;100189.31;;;-2.68;100.00
56876;BME280;42622;49.972;8.452;2022-12-11T03:57:04;100194.41;;;-2.65;100.00
56876;BME280;42622;49.972;8.452;2022-12-11T03:59:32;100191.84;;;-2.67;100.00
56876;BME280;42622;49.972;8.452;2022-12-11T04:01:59;100191.06;;;-2.70;100.00
56876;BME280;42622;49.972;8.452;2022-12-11T04:04:24;100194.41;;;-2.65;100.00
56876;BME280;42622;49.972;8.452;2022-12-11T04:06:50;100192.72;;;-2.66;100.00
56876;BME280;42622;49.972;8.452;2022-12-11T04:09:16;100186.72;;;-2.68;100.00
56876;BME280;42622;49.972;8.452;2022-12-11T04:11:41;100187.53;;;-2.66;100.00
56876;BME280;42622;49.972;8.452;2022-12-11T04:14:13;100190.13;;;-2.66;100.00
56876;BME280;42622;49.972;8.452;2022-12-11T04:17:00;100190.13;;;-2.65;100.00
56876;BME280;42622;49.972;8.452;2022-12-11T04:19:26;100181.47;;;-2.65;100.00
56876;BME280;42622;49.972;8.452;2022-12-11T04:22:14;100179.81;;;-2.69;100.00
56876;BME280;42622;49.972;8.452;2022-12-11T04:25:04;100179.00;;;-2.71;100.00
56876;BME280;42622;49.972;8.452;2022-12-11T04:27:32;100184.25;;;-2.74;100.00
56876;BME280;42622;49.972;8.452;2022-12-11T04:30:22;100184.34;;;-2.80;100.00
56876;BME280;42622;49.972;8.452;2022-12-11T04:32:50;100180.94;;;-2.82;100.00
56876;BME280;42622;49.972;8.452;2022-12-11T04:35:17;100178.38;;;-2.84;100.00
56876;BME280;42622;49.972;8.452;2022-12-11T04:37:44;100181.78;;;-2.82;100.00
56876;BME280;42622;49.972;8.452;2022-12-11T04:40:15;100177.47;;;-2.81;100.00
56876;BME280;42622;49.972;8.452;2022-12-11T04:42:42;100175.69;;;-2.79;100.00
56876;BME280;42622;49.972;8.452;2022-12-11T04:45:09;100179.06;;;-2.76;100.00
56876;BME280;42622;49.972;8.452;2022-12-11T04:47:37;100178.22;;;-2.76;100.00
56876;BME280;42622;49.972;8.452;2022-12-11T04:50:09;100178.22;;;-2.75;100.00
56876;BME280;42622;49.972;8.452;2022-12-11T04:52:35;100178.22;;;-2.75;100.00
56876;BME280;42622;49.972;8.452;2022-12-11T04:55:03;100180.81;;;-2.76;100.00
56876;BME280;42622;49.972;8.452;2022-12-11T04:57:30;100174.78;;;-2.75;100.00
56876;BME280;42622;49.972;8.452;2022-12-11T04:59:55;100164.41;;;-2.74;100.00
56876;BME280;42622;49.972;8.452;2022-12-11T05:02:21;100162.69;;;-2.76;100.00
56876;BME280;42622;49.972;8.452;2022-12-11T05:04:47;100168.72;;;-2.74;100.00
56876;BME280;42622;49.972;8.452;2022-12-11T05:07:13;100171.31;;;-2.74;100.00
56876;BME280;42622;49.972;8.452;2022-12-11T05:09:38;100183.31;;;-2.70;100.00
56876;BME280;42622;49.972;8.452;2022-12-11T05:12:04;100174.69;;;-2.71;100.00
56876;BME280;42622;49.972;8.452;2022-12-11T05:14:30;100184.06;;;-2.65;100.00
56876;BME280;42622;49.972;8.452;2022-12-11T05:16:58;100180.63;;;-2.64;100.00
56876;BME280;42622;49.972;8.452;2022-12-11T05:19:24;100166.00;;;-2.67;100.00
56876;BME280;42622;49.972;8.452;2022-12-11T05:21:50;100167.72;;;-2.69;100.00
56876;BME280;42622;49.972;8.452;2022-12-11T05:24:16;100166.84;;;-2.66;100.00
56876;BME280;42622;49.972;8.452;2022-12-11T05:26:41;100160.75;;;-2.63;100.00
56876;BME280;42622;49.972;8.452;2022-12-11T05:29:07;100146.09;;;-2.63;100.00
56876;BME280;42622;49.972;8.452;2022-12-11T05:31:33;100154.69;;;-2.61;100.00
56876;BME280;42622;49.972;8.452;2022-12-11T05:33:59;100152.09;;;-2.61;100.00
56876;BME280;42622;49.972;8.452;2022-12-11T05:36:29;100153.75;;;-2.58;100.00
56876;BME280;42622;49.972;8.452;2022-12-11T05:38:58;100144.34;;;-2.61;100.00
56876;BME280;42622;49.972;8.452;2022-12-11T05:41:29;100143.50;;;-2.63;100.00
56876;BME280;42622;49.972;8.452;2022-12-11T05:43:57;100146.09;;;-2.63;100.00
56876;BME280;42622;49.972;8.452;2022-12-11T05:46:28;100143.50;;;-2.63;100.00
56876;BME280;42622;49.972;8.452;2022-12-11T05:48:59;100146.09;;;-2.63;100.00
56876;BME280;42622;49.972;8.452;2022-12-11T05:51:28;100145.25;;;-2.63;100.00
56876;BME280;42622;49.972;8.452;2022-12-11T05:53:56;100150.34;;;-2.60;100.00
56876;BME280;42622;49.972;8.452;2022-12-11T05:56:30;100147.78;;;-2.60;100.00
56876;BME280;42622;49.972;8.452;2022-12-11T05:59:00;100141.75;;;-2.61;100.00
56876;BME280;42622;49.972;8.452;2022-12-11T06:01:47;100140.06;;;-2.65;100.00
56876;BME280;42622;49.972;8.452;2022-12-11T06:04:12;100135.78;;;-2.66;100.00
56876;BME280;42622;49.972;8.452;2022-12-11T06:06:38;100137.56;;;-2.68;100.00
56876;BME280;42622;49.972;8.452;2022-12-11T06:09:05;100137.53;;;-2.67;100.00
56876;BME280;42622;49.972;8.452;2022-12-11T06:11:34;100130.72;;;-2.72;100.00
56876;BME280;42622;49.972;8.452;2022-12-11T06:14:02;100130.81;;;-2.75;100.00
56876;BME280;42622;49.972;8.452;2022-12-11T06:16:28;100134.28;;;-2.79;100.00
56876;BME280;42622;49.972;8.452;2022-12-11T06:18:54;100139.47;;;-2.79;100.00
56876;BME280;42622;49.972;8.452;2022-12-11T06:21:24;100132.59;;;-2.80;100.00
56876;BME280;42622;49.972;8.452;2022-12-11T06:23:57;100134.28;;;-2.79;100.00
56876;BME280;42622;49.972;8.452;2022-12-11T06:26:24;100143.75;;;-2.77;100.00
56876;BME280;42622;49.972;8.452;2022-12-11T06:28:51;100140.28;;;-2.76;100.00
56876;BME280;42622;49.972;8.452;2022-12-11T06:31:18;100135.94;;;-2.74;100.00
56876;BME280;42622;49.972;8.452;2022-12-11T06:33:45;100144.53;;;-2.73;100.00
56876;BME280;42622;49.972;8.452;2022-12-11T06:36:16;100132.41;;;-2.68;100.00
56876;BME280;42622;49.972;8.452;2022-12-11T06:38:45;100133.19;;;-2.66;100.00
56876;BME280;42622;49.972;8.452;2022-12-11T06:41:12;100134.03;;;-2.64;100.00
56876;BME280;42622;49.972;8.452;2022-12-11T06:43:40;100123.69;;;-2.64;100.00
56876;BME280;42622;49.972;8.452;2022-12-11T06:46:13;100124.50;;;-2.62;100.00
56876;BME280;42622;49.972;8.452;2022-12-11T06:48:42;100130.59;;;-2.65;100.00
56876;BME280;42622;49.972;8.452;2022-12-11T06:51:12;100134.88;;;-2.63;100.00
56876;BME280;42622;49.972;8.452;2022-12-11T06:53:55;100129.72;;;-2.65;100.00
56876;BME280;42622;49.972;8.452;2022-12-11T06:56:23;100127.13;;;-2.65;100.00
56876;BME280;42622;49.972;8.452;2022-12-11T06:58:49;100131.47;;;-2.66;100.00
56876;BME280;42622;49.972;8.452;2022-12-11T07:01:21;100126.34;;;-2.69;100.00
56876;BME280;42622;49.972;8.452;2022-12-11T07:03:54;100134.06;;;-2.66;100.00
56876;BME280;42622;49.972;8.452;2022-12-11T07:06:22;100127.09;;;-2.62;100.00
56876;BME280;42622;49.972;8.452;2022-12-11T07:08:49;100130.50;;;-2.60;100.00
56876;BME280;42622;49.972;8.452;2022-12-11T07:11:18;100133.13;;;-2.61;100.00
56876;BME280;42622;49.972;8.452;2022-12-11T07:13:46;100136.56;;;-2.61;100.00
56876;BME280;42622;49.972;8.452;2022-12-11T07:16:15;100143.44;;;-2.60;100.00
56876;BME280;42622;49.972;8.452;2022-12-11T07:18:49;100148.56;;;-2.57;100.00
56876;BME280;42622;49.972;8.452;2022-12-11T07:21:16;100138.22;;;-2.57;100.00
56876;BME280;42622;49.972;8.452;2022-12-11T07:23:43;100136.53;;;-2.58;100.00
56876;BME280;42622;49.972;8.452;2022-12-11T07:26:13;100142.53;;;-2.57;100.00
56876;BME280;42622;49.972;8.452;2022-12-11T07:28:40;100144.16;;;-2.52;100.00
56876;BME280;42622;49.972;8.452;2022-12-11T07:31:13;100141.56;;;-2.52;100.00
56876;BME280;42622;49.972;8.452;2022-12-11T07:33:41;100139.81;;;-2.50;100.00
56876;BME280;42622;49.972;8.452;2022-12-11T07:36:11;100138.91;;;-2.49;100.00
56876;BME280;42622;49.972;8.452;2022-12-11T07:38:39;100144.88;;;-2.45;100.00
56876;BME280;42622;49.972;8.452;2022-12-11T07:41:11;100137.13;;;-2.44;100.00
56876;BME280;42622;49.972;8.452;2022-12-11T07:43:38;100149.09;;;-2.39;100.00
56876;BME280;42622;49.972;8.452;2022-12-11T07:46:18;100137.81;;;-2.37;100.00
56876;BME280;42622;49.972;8.452;2022-12-11T07:48:47;100154.19;;;-2.35;100.00
56876;BME280;42622;49.972;8.452;2022-12-11T07:51:18;100150.69;;;-2.32;100.00
56876;BME280;42622;49.972;8.452;2022-12-11T07:53:49;100148.91;;;-2.30;100.00
56876;BME280;42622;49.972;8.452;2022-12-11T07:56:17;100152.34;;;-2.28;100.00
56876;BME280;42622;49.972;8.452;2022-12-11T07:58:44;100148.84;;;-2.26;100.00
56876;BME280;42622;49.972;8.452;2022-12-11T08:01:23;100147.03;;;-2.22;100.00
56876;BME280;42622;49.972;8.452;2022-12-11T08:03:51;100150.44;;;-2.20;100.00
56876;BME280;42622;49.972;8.452;2022-12-11T08:06:19;100149.59;;;-2.21;100.00
56876;BME280;42622;49.972;8.452;2022-12-11T08:08:49;100155.56;;;-2.17;100.00
56876;BME280;42622;49.972;8.452;2022-12-11T08:11:14;100155.56;;;-2.17;100.00
56876;BME280;42622;49.972;8.452;2022-12-11T08:13:41;100152.84;;;-2.12;100.00
56876;BME280;42622;49.972;8.452;2022-12-11T08:16:11;100146.78;;;-2.10;100.00
56876;BME280;42622;49.972;8.452;2022-12-11T08:18:39;100145.06;;;-2.11;100.00
56876;BME280;42622;49.972;8.452;2022-12-11T08:21:09;100149.31;;;-2.07;100.00
56876;BME280;42622;49.972;8.452;2022-12-11T08:23:45;100156.19;;;-2.06;100.00
56876;BME280;42622;49.972;8.452;2022-12-11T08:26:16;100155.31;;;-2.05;100.00
56876;BME280;42622;49.972;8.452;2022-12-11T08:28:45;100164.81;;;-2.05;100.00
56876;BME280;42622;49.972;8.452;2022-12-11T08:31:13;100163.94;;;-2.06;100.00
56876;BME280;42622;49.972;8.452;2022-12-11T08:33:41;100156.19;;;-2.06;100.00
56876;BME280;42622;49.972;8.452;2022-12-11T08:36:11;100163.78;;;-1.98;100.00
56876;BME280;42622;49.972;8.452;2022-12-11T08:38:40;100166.31;;;-1.94;100.00
56876;BME280;42622;49.972;8.452;2022-12-11T08:41:23;100163.66;;;-1.90;100.00
56876;BME280;42622;49.972;8.452;2022-12-11T08:43:51;100162.75;;;-1.89;100.00
56876;BME280;42622;49.972;8.452;2022-12-11T08:46:25;100161.88;;;-1.88;100.00
56876;BME280;42622;49.972;8.452;2022-12-11T08:48:53;100163.50;;;-1.84;100.00
56876;BME280;42622;49.972;8.452;2022-12-11T08:51:24;100161.75;;;-1.84;100.00
56876;BME280;42622;49.972;8.452;2022-12-11T08:53:57;100166.88;;;-1.79;100.00
56876;BME280;42622;49.972;8.452;2022-12-11T08:56:26;100162.47;;;-1.77;100.00
56876;BME280;42622;49.972;8.452;2022-12-11T08:58:53;100158.19;;;-1.78;100.00
56876;BME280;42622;49.972;8.452;2022-12-11T09:01:23;100156.44;;;-1.76;100.00
56876;BME280;42622;49.972;8.452;2022-12-11T09:03:54;100152.19;;;-1.80;100.00
56876;BME280;42622;49.972;8.452;2022-12-11T09:06:25;100152.28;;;-1.83;100.00
56876;BME280;42622;49.972;8.452;2022-12-11T09:08:53;100149.69;;;-1.83;100.00
56876;BME280;42622;49.972;8.452;2022-12-11T09:11:28;100148.78;;;-1.82;100.00
56876;BME280;42622;49.972;8.452;2022-12-11T09:13:56;100138.38;;;-1.81;100.00
56876;BME280;42622;49.972;8.452;2022-12-11T09:16:25;100142.66;;;-1.78;100.00
56876;BME280;42622;49.972;8.452;2022-12-11T09:18:54;100142.66;;;-1.78;100.00
56876;BME280;42622;49.972;8.452;2022-12-11T09:21:25;100141.75;;;-1.76;100.00
56876;BME280;42622;49.972;8.452;2022-12-11T09:23:56;100143.19;;;-1.62;100.00
56876;BME280;42622;49.972;8.452;2022-12-11T09:26:25;100143.72;;;-1.50;100.00
56876;BME280;42622;49.972;8.452;2022-12-11T09:28:52;100140.19;;;-1.46;100.00
56876;BME280;42622;49.972;8.452;2022-12-11T09:31:29;100147.75;;;-1.36;100.00
56876;BME280;42622;49.972;8.452;2022-12-11T09:34:04;100148.41;;;-1.28;100.00
56876;BME280;42622;49.972;8.452;2022-12-11T09:36:32;100137.19;;;-1.29;100.00
56876;BME280;42622;49.972;8.452;2022-12-11T09:39:01;100143.38;;;-1.34;100.00
56876;BME280;42622;49.972;8.452;2022-12-11T09:44:40;100133.09;;;-1.37;100.00
56876;BME280;42622;49.972;8.452;2022-12-11T09:47:33;100138.19;;;-1.34;100.00
56876;BME280;42622;49.972;8.452;2022-12-11T09:50:23;100132.22;;;-1.38;100.00
56876;BME280;42622;49.972;8.452;2022-12-11T09:53:05;100132.25;;;-1.39;100.00
56876;BME280;42622;49.972;8.452;2022-12-11T09:55:57;100137.50;;;-1.41;100.00
56876;BME280;42622;49.972;8.452;2022-12-11T10:01:47;100131.66;;;-1.51;100.00
56876;BME280;42622;49.972;8.452;2022-12-11T10:07:53;100137.56;;;-1.44;100.00
56876;BME280;42622;49.972;8.452;2022-12-11T10:14:46;100142.03;;;-1.51;100.00
56876;BME280;42622;49.972;8.452;2022-12-11T10:16:56;100127.41;;;-1.53;100.00
56876;BME280;42622;49.972;8.452;2022-12-11T10:19:31;100129.22;;;-1.57;100.00
56876;BME280;42622;49.972;8.452;2022-12-11T10:22:00;100118.91;;;-1.60;100.00
56876;BME280;42622;49.972;8.452;2022-12-11T10:24:38;100135.25;;;-1.56;100.00
56876;BME280;42622;49.972;8.452;2022-12-11T10:27:18;100137.88;;;-1.58;100.00
56876;BME280;42622;49.972;8.452;2022-12-11T10:29:58;100132.66;;;-1.56;100.00
56876;BME280;42622;49.972;8.452;2022-12-11T10:35:38;100131.81;;;-1.57;100.00
56876;BME280;42622;49.972;8.452;2022-12-11T10:38:33;100126.69;;;-1.60;100.00
56876;BME280;42622;49.972;8.452;2022-12-11T10:41:13;100117.94;;;-1.56;100.00
56876;BME280;42622;49.972;8.452;2022-12-11T10:43:47;100112.75;;;-1.56;100.00
56876;BME280;42622;49.972;8.452;2022-12-11T10:46:26;100110.94;;;-1.51;100.00
56876;BME280;42622;49.972;8.452;2022-12-11T10:48:56;100102.13;;;-1.43;100.00
56876;BME280;42622;49.972;8.452;2022-12-11T10:57:03;100107.16;;;-1.37;100.00
56876;BME280;42622;49.972;8.452;2022-12-11T10:59:49;100103.59;;;-1.33;100.00
56876;BME280;42622;49.972;8.452;2022-12-11T11:04:56;100103.28;;;-1.19;100.00
56876;BME280;42622;49.972;8.452;2022-12-11T11:07:29;100092.81;;;-1.16;100.00
56876;BME280;42622;49.972;8.452;2022-12-11T11:12:41;100087.59;;;-1.15;100.00
56876;BME280;42622;49.972;8.452;2022-12-11T11:15:21;100085.72;;;-1.10;100.00
56876;BME280;42622;49.972;8.452;2022-12-11T11:18:21;100077.06;;;-1.09;100.00
56876;BME280;42622;49.972;8.452;2022-12-11T11:20:51;100078.75;;;-1.08;100.00
56876;BME280;42622;49.972;8.452;2022-12-11T11:23:19;100073.50;;;-1.05;100.00
56876;BME280;42622;49.972;8.452;2022-12-11T11:25:57;100075.09;;;-1.01;100.00
56876;BME280;42622;49.972;8.452;2022-12-11T11:28:38;100070.81;;;-1.02;100.00
56876;BME280;42622;49.972;8.452;2022-12-11T11:31:12;100081.16;;;-1.00;100.00
56876;BME280;42622;49.972;8.452;2022-12-11T11:34:04;100074.13;;;-0.95;100.00
56876;BME280;42622;49.972;8.452;2022-12-11T11:36:35;100074.78;;;-0.88;100.00
56876;BME280;42622;49.972;8.452;2022-12-11T11:39:28;100071.38;;;-0.90;100.00
56876;BME280;42622;49.972;8.452;2022-12-11T11:42:51;100072.19;;;-0.88;100.00
56876;BME280;42622;49.972;8.452;2022-12-11T11:51:39;100053.09;;;-0.86;100.00
56876;BME280;42622;49.972;8.452;2022-12-11T11:54:32;100050.56;;;-0.87;100.00
56876;BME280;42622;49.972;8.452;2022-12-11T11:57:22;100047.06;;;-0.86;100.00
56876;BME280;42622;49.972;8.452;2022-12-11T12:00:03;100044.63;;;-0.92;100.00
56876;BME280;42622;49.972;8.452;2022-12-11T12:02:35;100049.00;;;-0.94;100.00
56876;BME280;42622;49.972;8.452;2022-12-11T12:05:02;100043.91;;;-0.98;100.00
56876;BME280;42622;49.972;8.452;2022-12-11T12:11:04;100045.66;;;-0.98;100.00
56876;BME280;42622;49.972;8.452;2022-12-11T12:16:46;100050.94;;;-1.03;100.00
56876;BME280;42622;49.972;8.452;2022-12-11T12:26:15;100045.88;;;-1.07;100.00
56876;BME280;42622;49.972;8.452;2022-12-11T12:35:29;100051.72;;;-0.99;100.00
56876;BME280;42622;49.972;8.452;2022-12-11T12:38:20;100051.69;;;-0.98;100.00
56876;BME280;42622;49.972;8.452;2022-12-11T12:44:18;100040.56;;;-1.03;100.00
56876;BME280;42622;49.972;8.452;2022-12-11T12:47:09;100041.34;;;-0.99;100.00
56876;BME280;42622;49.972;8.452;2022-12-11T12:49:46;100039.63;;;-0.99;100.00
56876;BME280;42622;49.972;8.452;2022-12-11T12:52:32;100038.88;;;-1.04;100.00
56876;BME280;42622;49.972;8.452;2022-12-11T13:00:41;100045.84;;;-1.06;100.00
56876;BME280;42622;49.972;8.452;2022-12-11T13:06:08;100044.06;;;-1.04;100.00
56876;BME280;42622;49.972;8.452;2022-12-11T13:08:48;100043.91;;;-0.98;100.00
56876;BME280;42622;49.972;8.452;2022-12-11T13:11:20;100045.59;;;-0.97;100.00
56876;BME280;42622;49.972;8.452;2022-12-11T13:14:29;100040.47;;;-1.00;100.00
56876;BME280;42622;49.972;8.452;2022-12-11T13:19:49;100040.38;;;-0.95;100.00
56876;BME280;42622;49.972;8.452;2022-12-11T13:22:23;100038.63;;;-0.94;100.00
56876;BME280;42622;49.972;8.452;2022-12-11T13:27:40;100036.84;;;-0.92;100.00
56876;BME280;42622;49.972;8.452;2022-12-11T13:32:48;100034.09;;;-0.86;100.00
56876;BME280;42622;49.972;8.452;2022-12-11T13:35:21;100042.72;;;-0.86;100.00
56876;BME280;42622;49.972;8.452;2022-12-11T13:37:51;100028.06;;;-0.88;100.00
56876;BME280;42622;49.972;8.452;2022-12-11T13:40:32;100039.31;;;-0.88;100.00
56876;BME280;42622;49.972;8.452;2022-12-11T13:43:15;100031.47;;;-0.86;100.00
56876;BME280;42622;49.972;8.452;2022-12-11T13:46:08;100039.28;;;-0.86;100.00
56876;BME280;42622;49.972;8.452;2022-12-11T13:48:53;100051.34;;;-0.85;100.00
56876;BME280;42622;49.972;8.452;2022-12-11T13:51:28;100044.47;;;-0.86;100.00
56876;BME280;42622;49.972;8.452;2022-12-11T13:54:18;100053.16;;;-0.89;100.00
56876;BME280;42622;49.972;8.452;2022-12-11T13:59:41;100046.06;;;-0.82;100.00
56876;BME280;42622;49.972;8.452;2022-12-11T14:02:32;100034.06;;;-0.85;100.00
56876;BME280;42622;49.972;8.452;2022-12-11T14:05:07;100042.63;;;-0.83;100.00
56876;BME280;42622;49.972;8.452;2022-12-11T14:07:41;100052.31;;;-0.89;100.00
56876;BME280;42622;49.972;8.452;2022-12-11T14:10:24;100048.97;;;-0.93;100.00
56876;BME280;42622;49.972;8.452;2022-12-11T14:13:01;100049.81;;;-0.92;100.00
56876;BME280;42622;49.972;8.452;2022-12-11T14:15:32;100057.59;;;-0.92;100.00
56876;BME280;42622;49.972;8.452;2022-12-11T14:18:01;100056.81;;;-0.96;100.00
56876;BME280;42622;49.972;8.452;2022-12-11T14:20:36;100055.97;;;-0.97;100.00
56876;BME280;42622;49.972;8.452;2022-12-11T14:23:38;100053.47;;;-1.00;100.00
56876;BME280;42622;49.972;8.452;2022-12-11T14:26:31;100062.09;;;-0.99;100.00
56876;BME280;42622;49.972;8.452;2022-12-11T14:28:59;100056.06;;;-1.00;100.00
56876;BME280;42622;49.972;8.452;2022-12-11T14:31:43;100064.69;;;-0.99;100.00
56876;BME280;42622;49.972;8.452;2022-12-11T14:34:24;100070.75;;;-0.99;100.00
56876;BME280;42622;49.972;8.452;2022-12-11T14:36:54;100063.03;;;-1.02;100.00
56876;BME280;42622;49.972;8.452;2022-12-11T14:39:39;100068.25;;;-1.03;100.00
56876;BME280;42622;49.972;8.452;2022-12-11T14:42:29;100063.13;;;-1.05;100.00